createdAt,value
2019-01-24T00:03:10.057Z,41.50
2019-01-24T00:05:58.966Z,37.37
2019-01-24T00:08:41.295Z,45.03
2019-01-24T00:11:30.216Z,48.27
2019-01-24T00:14:19.234Z,34.33
2019-01-24T00:17:09.860Z,47.33
2019-01-24T00:19:58.886Z,46.93
2019-01-24T00:22:47.871Z,34.33
2019-01-24T00:25:37.041Z,31.00
2019-01-24T00:28:26.110Z,25.87
2019-01-24T00:31:15.029Z,44.13
2019-01-24T00:34:03.968Z,35.67
2019-01-24T00:36:52.811Z,32.53
2019-01-24T00:40:01.115Z,42.57
2019-01-24T00:43:09.395Z,35.80
2019-01-24T00:45:58.251Z,41.30
2019-01-24T00:48:47.261Z,39.00
2019-01-24T00:51:55.617Z,32.93
2019-01-24T00:55:24.633Z,29.43
2019-01-24T00:58:13.602Z,37.60
2019-01-24T01:01:02.675Z,36.33
2019-01-24T01:04:10.946Z,30.77
2019-01-24T01:07:10.866Z,40.03
2019-01-24T01:09:59.792Z,50.47
2019-01-24T01:12:48.861Z,54.40
2019-01-24T01:15:57.162Z,57.13
2019-01-24T01:18:46.148Z,31.37
2019-01-24T01:21:35.159Z,39.87
2019-01-24T01:24:43.439Z,25.93
2019-01-24T01:27:32.519Z,34.33
2019-01-24T01:30:42.094Z,45.70
2019-01-24T01:33:31.091Z,48.73
2019-01-24T06:44:17.782Z,48.20
2019-01-24T06:46:47.357Z,48.70
2019-01-24T06:49:36.312Z,50.77
2019-01-24T06:52:25.307Z,52.67
2019-01-24T06:55:34.970Z,57.87
2019-01-24T06:58:23.978Z,49.13
2019-01-24T07:01:12.975Z,48.63
2019-01-24T07:04:01.849Z,64.40
2019-01-24T07:06:52.386Z,51.10
2019-01-24T07:09:34.867Z,53.40
2019-01-24T07:12:23.719Z,62.13
2019-01-24T07:15:33.322Z,52.50
2019-01-24T07:18:22.179Z,56.77
2019-01-24T07:21:11.283Z,49.30
2019-01-24T07:24:00.230Z,70.93
2019-01-24T07:26:49.120Z,68.57
2019-01-24T07:29:38.061Z,69.40
2019-01-24T07:32:26.982Z,57.23
2019-01-24T07:35:35.326Z,60.27
2019-01-24T07:38:24.259Z,49.87
2019-01-24T07:41:32.622Z,54.90
2019-01-24T07:44:21.536Z,59.90
2019-01-24T07:47:12.030Z,65.03
2019-01-24T07:50:02.527Z,60.10
2019-01-24T07:52:51.634Z,79.07
2019-01-24T07:55:42.136Z,59.10
2019-01-24T07:58:50.467Z,74.50
2019-01-24T08:01:39.411Z,75.03
2019-01-24T08:04:28.323Z,68.33
2019-01-24T08:07:18.888Z,77.30
2019-01-24T08:10:27.162Z,61.37
2019-01-24T08:13:16.192Z,69.77
2019-01-24T08:16:05.194Z,67.33
2019-01-24T08:18:54.072Z,59.80
2019-01-24T08:21:42.951Z,73.67
2019-01-24T08:24:51.402Z,61.60
2019-01-24T08:27:40.378Z,66.33
2019-01-24T08:31:01.964Z,60.23
2019-01-24T08:34:00.060Z,54.47
2019-01-24T08:36:50.605Z,48.70
2019-01-24T08:39:39.640Z,56.60
2019-01-24T08:42:28.608Z,56.33
2019-01-24T08:45:17.680Z,58.53
2019-01-24T08:48:26.039Z,74.00
2019-01-24T08:51:14.954Z,55.30
2019-01-24T08:54:03.861Z,59.00
2019-01-24T08:57:12.171Z,62.00
2019-01-24T09:00:01.056Z,67.53
2019-01-24T09:02:50.469Z,61.50
2019-01-24T09:05:39.478Z,53.87
2019-01-24T09:08:22.202Z,68.07
2019-01-24T09:11:11.067Z,59.57
2019-01-24T09:13:59.966Z,67.37
2019-01-24T09:16:48.924Z,78.73
2019-01-24T09:19:37.962Z,73.27
2019-01-24T09:22:26.807Z,52.93
2019-01-24T09:25:16.063Z,58.63
2019-01-24T09:28:05.059Z,64.70
2019-01-24T09:31:13.341Z,77.07
2019-01-24T09:34:03.979Z,61.50
2019-01-24T09:36:52.838Z,51.80
2019-01-24T09:39:41.807Z,73.23
2019-01-24T09:42:30.718Z,61.17
2019-01-24T09:45:40.378Z,76.20
2019-01-24T09:48:29.250Z,85.37
2019-01-24T09:51:18.204Z,71.40
2019-01-24T09:54:07.115Z,67.47
2019-01-24T09:56:55.971Z,73.70
2019-01-24T09:59:44.888Z,64.57
2019-01-24T10:02:33.947Z,71.90
2019-01-24T10:05:22.943Z,70.40
2019-01-24T10:08:11.917Z,80.30
2019-01-24T10:11:00.887Z,56.70
2019-01-24T10:13:49.805Z,69.47
2019-01-24T10:16:38.682Z,61.53
2019-01-24T10:19:46.943Z,64.83
2019-01-24T10:22:35.879Z,59.30
2019-01-24T10:25:44.073Z,67.13
2019-01-24T10:28:46.330Z,61.47
2019-01-24T10:31:35.199Z,66.63
2019-01-24T10:34:43.566Z,70.40
2019-01-24T10:37:51.927Z,75.80
2019-01-24T10:41:00.187Z,71.47
2019-01-24T10:43:49.195Z,67.87
2019-01-24T10:46:38.055Z,58.70
2019-01-24T10:49:27.025Z,72.67
2019-01-24T10:52:15.947Z,62.20
2019-01-24T10:55:25.561Z,78.33
2019-01-24T10:58:14.495Z,70.87
2019-01-24T11:01:03.531Z,69.10
2019-01-24T11:03:54.219Z,57.40
2019-01-24T11:06:49.860Z,67.20
2019-01-24T11:09:46.515Z,62.37
2019-01-24T11:12:35.363Z,59.03
2019-01-24T11:15:24.826Z,58.87
2019-01-24T11:18:13.831Z,70.27
2019-01-24T11:21:22.200Z,61.40
2019-01-24T11:24:11.210Z,62.93
2019-01-24T11:27:00.387Z,69.83
2019-01-24T11:29:49.315Z,60.83
2019-01-24T11:32:39.839Z,60.77
2019-01-24T11:35:49.577Z,67.43
2019-01-24T11:38:38.600Z,71.53
2019-01-24T11:41:27.667Z,78.13
2019-01-24T11:44:36.161Z,61.53
2019-01-24T11:47:46.120Z,55.40
2019-01-24T11:50:54.410Z,60.50
2019-01-24T11:53:44.896Z,57.83
2019-01-24T11:56:33.858Z,79.93
2019-01-24T11:59:22.778Z,61.83
2019-01-24T12:02:31.076Z,55.03
2019-01-24T12:05:39.686Z,61.53
2019-01-24T12:08:22.600Z,69.77
2019-01-24T12:11:11.683Z,72.27
2019-01-24T12:14:02.196Z,53.70
2019-01-24T12:16:51.112Z,67.53
2019-01-24T12:19:40.922Z,63.83
2019-01-24T12:22:29.838Z,61.80
2019-01-24T12:28:46.161Z,72.60
2019-01-24T12:31:35.041Z,67.30
2019-01-24T12:38:28.559Z,62.07
2019-01-24T12:41:19.089Z,65.17
2019-01-24T12:44:27.420Z,68.37
2019-01-24T12:47:16.350Z,55.37
2019-01-24T12:50:25.940Z,50.63
2019-01-24T12:53:14.951Z,65.10
2019-01-24T12:56:03.937Z,59.80
2019-01-24T12:59:12.307Z,70.20
2019-01-24T13:02:01.251Z,58.30
2019-01-24T13:04:50.199Z,69.90
2019-01-24T13:07:33.006Z,67.40
2019-01-24T13:10:22.896Z,64.73
2019-01-24T13:13:11.773Z,67.87
2019-01-24T13:16:00.773Z,66.77
2019-01-24T13:19:09.142Z,74.80
2019-01-24T13:21:58.081Z,74.93
2019-01-24T13:24:47.148Z,74.77
2019-01-24T13:27:36.094Z,63.20
2019-01-24T13:30:45.715Z,68.10
2019-01-24T13:33:34.606Z,62.67
2019-01-24T13:36:42.971Z,65.83
2019-01-24T13:39:31.842Z,66.97
2019-01-24T13:42:20.767Z,65.10
2019-01-24T13:45:30.392Z,54.60
2019-01-24T13:48:19.385Z,72.07
2019-01-24T13:51:08.401Z,62.73
2019-01-24T13:53:57.316Z,69.03
2019-01-24T13:56:46.269Z,74.13
2019-01-24T13:59:35.163Z,67.87
2019-01-24T14:02:24.137Z,64.67
2019-01-24T14:05:33.747Z,79.40
2019-01-24T14:08:24.301Z,74.73
2019-01-24T14:11:18.269Z,74.33
2019-01-24T14:14:24.900Z,100.55
2019-01-24T14:17:15.551Z,91.23
2019-01-24T14:20:25.146Z,80.13
2019-01-24T14:23:14.243Z,78.47
2019-01-24T14:26:03.284Z,67.10
2019-01-24T14:28:54.231Z,60.17
2019-01-24T14:31:43.199Z,66.90
2019-01-24T14:34:33.783Z,58.23
2019-01-24T14:37:24.418Z,73.83
2019-01-24T14:40:32.688Z,56.87
2019-01-24T14:43:21.735Z,82.23
2019-01-24T14:46:10.727Z,61.43
2019-01-24T14:48:59.843Z,87.70
2019-01-24T14:51:50.886Z,79.80
2019-01-24T14:55:12.942Z,85.00
2019-01-24T14:58:09.300Z,97.20
2019-01-24T15:01:19.128Z,80.60
2019-01-24T15:04:08.278Z,84.07
2019-01-24T15:06:57.267Z,74.33
2019-01-24T15:09:39.759Z,63.47
2019-01-24T15:12:28.643Z,74.07
2019-01-24T15:15:39.851Z,67.20
2019-01-24T15:18:48.328Z,101.82
2019-01-24T15:25:25.318Z,94.40
2019-01-24T15:28:33.708Z,76.40
2019-01-24T15:31:22.692Z,73.40
2019-01-24T15:34:13.202Z,71.27
2019-01-24T15:36:42.856Z,85.27
2019-01-24T15:39:33.377Z,83.73
2019-01-24T15:42:22.411Z,86.23
2019-01-24T15:45:32.140Z,71.83
2019-01-24T15:48:22.667Z,73.37
2019-01-24T15:51:11.594Z,89.87
2019-01-24T15:54:02.174Z,61.93
2019-01-24T15:56:52.728Z,69.10
2019-01-24T15:59:43.396Z,63.63
2019-01-24T16:02:51.739Z,77.70
2019-01-24T16:05:40.835Z,56.63
2019-01-24T16:08:24.575Z,55.53
2019-01-24T16:11:13.643Z,56.27
2019-01-24T16:14:04.411Z,61.33
2019-01-24T16:16:56.392Z,78.90
2019-01-24T16:19:45.413Z,64.10
2019-01-24T16:22:34.378Z,63.20
2019-01-24T16:25:43.999Z,69.07
2019-01-24T16:28:34.560Z,72.30
2019-01-24T16:31:25.151Z,75.53
2019-01-24T16:34:15.649Z,73.67
2019-01-24T16:37:04.659Z,70.83
2019-01-24T16:40:33.707Z,65.63
2019-01-24T16:43:22.647Z,57.70
2019-01-24T16:46:29.360Z,81.90
2019-01-24T16:49:18.403Z,80.83
2019-01-24T16:52:26.700Z,83.30
2019-01-24T16:55:16.491Z,78.37
2019-01-24T16:58:05.942Z,78.33
2019-01-24T17:01:14.321Z,65.70
2019-01-24T17:04:03.240Z,73.10
2019-01-24T17:06:53.738Z,71.80
2019-01-24T17:09:36.123Z,59.37
2019-01-24T17:12:25.180Z,72.70
2019-01-24T17:15:34.797Z,67.50
2019-01-24T17:18:23.755Z,94.57
2019-01-24T17:21:12.747Z,76.67
2019-01-24T17:24:01.743Z,61.23
2019-01-24T17:26:50.729Z,64.67
2019-01-24T17:29:59.126Z,61.73
2019-01-24T17:32:49.860Z,87.73
2019-01-24T17:35:58.141Z,72.63
2019-01-24T17:38:47.066Z,68.67
2019-01-24T17:41:36.055Z,71.03
2019-01-24T17:44:25.018Z,77.57
2019-01-24T17:47:13.880Z,75.37
2019-01-24T17:50:02.860Z,79.60
2019-01-24T17:52:51.942Z,82.77
2019-01-24T17:56:00.348Z,79.50
2019-01-24T17:58:50.932Z,85.77
2019-01-24T18:08:08.447Z,54.67
2019-01-24T18:10:52.617Z,60.57
2019-01-24T18:13:41.619Z,61.77
2019-01-24T18:16:30.596Z,76.50
2019-01-24T18:19:38.963Z,64.17
2019-01-24T18:22:27.829Z,59.93
2019-01-24T18:28:17.920Z,60.53
2019-01-24T18:37:31.169Z,74.70
2019-01-24T18:40:40.791Z,56.10
2019-01-24T18:46:39.459Z,67.63
2019-01-24T18:49:30.087Z,50.13
2019-01-24T18:52:19.103Z,55.00
2019-01-24T18:55:08.479Z,56.07
2019-01-24T18:57:57.622Z,65.57
2019-01-24T19:00:46.727Z,57.77
2019-01-24T19:03:35.785Z,70.63
2019-01-24T19:06:44.183Z,75.17
2019-01-24T19:09:26.596Z,64.70
2019-01-24T19:12:15.573Z,91.73
2019-01-24T19:15:25.225Z,62.80
2019-01-24T19:21:14.771Z,62.50
2019-01-24T19:24:03.719Z,70.53
2019-01-24T19:26:52.666Z,72.10
2019-01-24T19:29:41.753Z,72.40
2019-01-24T19:32:50.115Z,77.07
2019-01-24T19:35:40.669Z,78.73
2019-01-24T19:38:29.595Z,64.53
2019-01-24T19:41:20.159Z,76.20
2019-01-24T19:44:15.646Z,63.80
2019-01-24T19:47:20.912Z,76.33
2019-01-24T19:50:30.631Z,59.87
2019-01-24T19:53:19.664Z,72.63
2019-01-24T19:56:08.657Z,64.63
2019-01-24T19:58:57.790Z,72.23
2019-01-24T20:01:46.731Z,71.03
2019-01-24T20:04:37.406Z,70.07
2019-01-24T20:07:26.367Z,74.70
2019-01-24T20:10:28.882Z,68.93
2019-01-24T20:13:18.006Z,70.70
2019-01-24T20:16:07.003Z,71.43
2019-01-24T20:18:56.011Z,70.93
2019-01-24T20:21:44.901Z,58.30
2019-01-24T20:24:33.923Z,90.93
2019-01-24T20:27:22.937Z,57.87
2019-01-24T20:30:34.261Z,52.90
2019-01-24T20:33:42.559Z,50.27
2019-01-24T20:36:31.563Z,58.17
2019-01-24T20:39:20.729Z,57.93
2019-01-24T20:45:30.958Z,70.23
2019-01-24T20:48:21.442Z,68.93
2019-01-24T20:54:32.303Z,92.90
2019-01-24T20:57:21.317Z,57.13
2019-01-24T21:00:30.999Z,62.90
2019-01-24T21:03:20.306Z,54.27
2019-01-24T21:06:10.872Z,61.97
2019-01-24T21:08:53.581Z,65.63
2019-01-24T21:14:45.198Z,64.60
2019-01-24T21:17:34.234Z,64.43
2019-01-24T21:20:42.699Z,63.70
2019-01-24T21:23:31.922Z,60.37
2019-01-24T21:29:58.962Z,49.63
2019-01-24T21:32:48.096Z,70.13
2019-01-24T21:35:56.585Z,59.97
2019-01-24T21:38:45.848Z,54.80
2019-01-24T21:41:34.988Z,57.23
2019-01-24T21:47:24.911Z,68.00
2019-01-24T21:49:54.750Z,62.00
2019-01-24T21:52:45.399Z,63.53
2019-01-24T21:55:34.398Z,60.23
2019-01-24T21:58:23.615Z,69.47
2019-01-24T22:01:12.620Z,72.70
2019-01-24T22:04:01.591Z,66.60
2019-01-24T22:06:52.112Z,58.93
2019-01-24T22:09:34.639Z,56.07
2019-01-24T22:12:23.634Z,59.40
2019-01-24T22:15:33.303Z,68.37
2019-01-24T22:18:22.292Z,53.50
2019-01-24T22:21:11.436Z,60.17
2019-01-24T22:24:00.699Z,57.37
2019-01-24T22:26:49.571Z,45.73
2019-01-24T22:29:38.527Z,66.43
2019-01-24T22:35:56.426Z,75.83
2019-01-24T22:38:45.363Z,84.23
2019-01-24T22:41:34.426Z,54.67
2019-01-24T22:44:24.982Z,65.00
2019-01-24T22:47:13.879Z,41.80
2019-01-24T22:50:02.770Z,48.30
2019-01-24T22:52:51.698Z,46.00
2019-01-24T22:55:40.570Z,47.37
2019-01-24T22:58:48.835Z,47.23
2019-01-24T23:01:58.441Z,52.43
2019-01-24T23:04:47.299Z,64.30
2019-01-24T23:07:36.254Z,54.80
2019-01-24T23:10:19.133Z,42.87
2019-01-24T23:13:08.106Z,53.53
2019-01-24T23:15:57.052Z,52.10
2019-01-24T23:18:45.935Z,63.53
2019-01-24T23:21:34.861Z,47.80
2019-01-24T23:24:23.795Z,45.20
2019-01-24T23:27:14.327Z,55.47
2019-01-24T23:30:23.903Z,48.87
2019-01-24T23:33:32.193Z,45.40
2019-01-24T23:36:21.083Z,49.40
2019-01-24T23:39:10.225Z,49.83
2019-01-24T23:41:59.149Z,45.90
2019-01-24T23:44:48.081Z,45.90
2019-01-24T23:47:36.943Z,53.57
2019-01-24T23:50:25.785Z,42.73
2019-01-24T23:53:14.657Z,52.30
2019-01-24T23:56:03.755Z,43.47
2019-01-24T23:58:52.614Z,50.67
